Alameda, NM

11:15 AM MDT on September 05, 2015 (GMT -0600)
Vista Casitas | | Change Station
CLOSE
Current Station
Personal Weather Station
Location: Albuquerque, NM
Elevation: 5466 ft
Nearby Weather Stations

Elev 5466 ft 35.19 °N, 106.74 °W | Updated 0 second ago

Partly Cloudy
Partly Cloudy
75.3 °F
Feels Like 78 °F
N
1.0
Wind Variable Wind from SSE
Gusts 2.0 mph

Today
High -- | Low -- °F
--% Chance of Precip.
Yesterday
High -- | Low -- °F
Precip. -- in
6:42 AM 7:28 PM
Waning Gibbous, 47% visible
Pressure 30.24 in
Visibility 10.0 miles
Clouds Few 4000 ft
Scattered Clouds 6000 ft
Mostly Cloudy 14000 ft
Heat Index 78 °F
Dew Point 58 °F
Humidity 55%
Rainfall 0.00 in
Snow Depth Not available.
UV 4 out of 12
Pollen 5.90 out of 12
Air Quality Not available.
Flu Activity Not available.
METAR KAEG 051648Z VRB04KT 10SM FEW040 SCT060 BKN140 22/14 A3024 RMK CB DSNT N-NE
Pressure 30.24 in
Visibility 10.0 miles
Clouds Few 4000 ft
Scattered Clouds 6000 ft
Mostly Cloudy 14000 ft
Heat Index 78 °F
Dew Point 58 °F
Humidity 55%
Rainfall 0.00 in
Snow Depth Not available.
UV 4 out of 12
Pollen 5.90 out of 12
Air Quality Not available.
Flu Activity Not available.
METAR KAEG 051648Z VRB04KT 10SM FEW040 SCT060 BKN140 22/14 A3024 RMK CB DSNT N-NE

10-Day Weather Forecast

×

Almanac

Astronomy

Sep. 05, 2015 Rise Set
Actual Time
Civil Twilight
Nautical Twilight
Astronomical Twilight
Moon
Length of Visible Light
Length of Day
Tomorrow will be .
, % of the Moon is Illuminated

Today's Extremes

State Highs State Lows

Community

WunderPhotos

Upload Photos

1,852,504 photos uploaded!

WunderBlogs® & News

Nearby

Air Quality

  Air Quality AQ Index Pollutant
Not available.

Snow Depth

Station Depth Elevation

Earthquake Activity

City Distance Mag. Time & Date
Minimum magnitude displayed is 2.5.

Coastal Water Temperatures

Place Temperature

Stations

Nearby Weather Stations

Station Location Temp. Windchill Dew Point Humidity Wind Precip. Elev Updated Type